sensor_id;sensor_type;location;lat;lon;timestamp;pressure;altitude;pressure_sealevel;temperature
22828;BMP180;11580;52.562;13.418;2023-02-15T00:01:30;102237.00;;;9.90
22828;BMP180;11580;52.562;13.418;2023-02-15T00:03:58;102236.00;;;9.90
22828;BMP180;11580;52.562;13.418;2023-02-15T00:06:25;102236.00;;;9.90
22828;BMP180;11580;52.562;13.418;2023-02-15T00:08:54;102242.00;;;9.80
22828;BMP180;11580;52.562;13.418;2023-02-15T00:11:21;102216.00;;;9.70
22828;BMP180;11580;52.562;13.418;2023-02-15T00:14:05;102235.00;;;9.70
22828;BMP180;11580;52.562;13.418;2023-02-15T00:16:33;102189.00;;;9.60
22828;BMP180;11580;52.562;13.418;2023-02-15T00:19:00;102225.00;;;9.50
22828;BMP180;11580;52.562;13.418;2023-02-15T00:21:29;102218.00;;;9.40
22828;BMP180;11580;52.562;13.418;2023-02-15T00:23:57;102214.00;;;9.30
22828;BMP180;11580;52.562;13.418;2023-02-15T00:26:25;102216.00;;;9.20
22828;BMP180;11580;52.562;13.418;2023-02-15T00:28:54;102206.00;;;9.10
22828;BMP180;11580;52.562;13.418;2023-02-15T00:31:23;102200.00;;;9.00
22828;BMP180;11580;52.562;13.418;2023-02-15T00:33:50;102196.00;;;8.90
22828;BMP180;11580;52.562;13.418;2023-02-15T00:36:18;102199.00;;;8.90
22828;BMP180;11580;52.562;13.418;2023-02-15T00:38:48;102195.00;;;8.80
22828;BMP180;11580;52.562;13.418;2023-02-15T00:41:16;102192.00;;;8.70
22828;BMP180;11580;52.562;13.418;2023-02-15T00:43:43;102202.00;;;8.60
22828;BMP180;11580;52.562;13.418;2023-02-15T00:46:10;102207.00;;;8.60
22828;BMP180;11580;52.562;13.418;2023-02-15T00:48:40;102208.00;;;8.50
22828;BMP180;11580;52.562;13.418;2023-02-15T00:51:07;102206.00;;;8.40
22828;BMP180;11580;52.562;13.418;2023-02-15T00:53:34;102204.00;;;8.40
22828;BMP180;11580;52.562;13.418;2023-02-15T00:56:01;102206.00;;;8.30
22828;BMP180;11580;52.562;13.418;2023-02-15T00:58:29;102199.00;;;8.20
22828;BMP180;11580;52.562;13.418;2023-02-15T01:01:03;102193.00;;;8.20
22828;BMP180;11580;52.562;13.418;2023-02-15T01:03:32;102194.00;;;8.10
22828;BMP180;11580;52.562;13.418;2023-02-15T01:06:01;102195.00;;;8.10
22828;BMP180;11580;52.562;13.418;2023-02-15T01:08:28;102183.00;;;8.00
22828;BMP180;11580;52.562;13.418;2023-02-15T01:10:56;102189.00;;;7.90
22828;BMP180;11580;52.562;13.418;2023-02-15T01:13:24;102183.00;;;7.90
22828;BMP180;11580;52.562;13.418;2023-02-15T01:15:54;102172.00;;;7.80
22828;BMP180;11580;52.562;13.418;2023-02-15T01:18:22;102168.00;;;7.80
22828;BMP180;11580;52.562;13.418;2023-02-15T01:20:49;102170.00;;;7.70
22828;BMP180;11580;52.562;13.418;2023-02-15T01:23:18;102166.00;;;7.70
22828;BMP180;11580;52.562;13.418;2023-02-15T01:25:46;102168.00;;;7.70
22828;BMP180;11580;52.562;13.418;2023-02-15T01:28:13;102167.00;;;7.60
22828;BMP180;11580;52.562;13.418;2023-02-15T01:30:41;102159.00;;;7.60
22828;BMP180;11580;52.562;13.418;2023-02-15T01:33:09;102156.00;;;7.50
22828;BMP180;11580;52.562;13.418;2023-02-15T01:35:44;102155.00;;;7.50
22828;BMP180;11580;52.562;13.418;2023-02-15T01:38:14;102153.00;;;7.50
22828;BMP180;11580;52.562;13.418;2023-02-15T01:40:42;102140.00;;;7.50
22828;BMP180;11580;52.562;13.418;2023-02-15T01:43:12;102142.00;;;7.40
22828;BMP180;11580;52.562;13.418;2023-02-15T01:45:40;102139.00;;;7.40
22828;BMP180;11580;52.562;13.418;2023-02-15T01:48:19;102134.00;;;7.40
22828;BMP180;11580;52.562;13.418;2023-02-15T01:50:53;102134.00;;;7.40
22828;BMP180;11580;52.562;13.418;2023-02-15T01:53:28;102115.00;;;7.40
22828;BMP180;11580;52.562;13.418;2023-02-15T01:56:03;102122.00;;;7.30
22828;BMP180;11580;52.562;13.418;2023-02-15T01:58:33;102113.00;;;7.30
22828;BMP180;11580;52.562;13.418;2023-02-15T02:01:01;102117.00;;;7.30
22828;BMP180;11580;52.562;13.418;2023-02-15T02:03:42;102112.00;;;7.20
22828;BMP180;11580;52.562;13.418;2023-02-15T02:06:12;102117.00;;;7.20
22828;BMP180;11580;52.562;13.418;2023-02-15T02:08:40;102101.00;;;7.20
22828;BMP180;11580;52.562;13.418;2023-02-15T02:11:13;102097.00;;;7.10
22828;BMP180;11580;52.562;13.418;2023-02-15T02:13:41;102096.00;;;7.10
22828;BMP180;11580;52.562;13.418;2023-02-15T02:16:19;102096.00;;;7.10
22828;BMP180;11580;52.562;13.418;2023-02-15T02:19:10;102095.00;;;7.00
22828;BMP180;11580;52.562;13.418;2023-02-15T02:25:41;102089.00;;;6.90
22828;BMP180;11580;52.562;13.418;2023-02-15T02:28:37;102087.00;;;6.80
22828;BMP180;11580;52.562;13.418;2023-02-15T02:31:40;102085.00;;;6.80
22828;BMP180;11580;52.562;13.418;2023-02-15T02:34:18;102080.00;;;6.80
22828;BMP180;11580;52.562;13.418;2023-02-15T02:36:55;102073.00;;;6.70
22828;BMP180;11580;52.562;13.418;2023-02-15T02:39:37;102070.00;;;6.70
22828;BMP180;11580;52.562;13.418;2023-02-15T02:42:17;102069.00;;;6.70
22828;BMP180;11580;52.562;13.418;2023-02-15T02:44:51;102070.00;;;6.70
22828;BMP180;11580;52.562;13.418;2023-02-15T02:47:29;102067.00;;;6.60
22828;BMP180;11580;52.562;13.418;2023-02-15T02:50:02;102070.00;;;6.60
22828;BMP180;11580;52.562;13.418;2023-02-15T02:52:40;102069.00;;;6.60
22828;BMP180;11580;52.562;13.418;2023-02-15T02:55:16;102063.00;;;6.50
22828;BMP180;11580;52.562;13.418;2023-02-15T02:57:52;102053.00;;;6.50
22828;BMP180;11580;52.562;13.418;2023-02-15T03:00:23;102054.00;;;6.50
22828;BMP180;11580;52.562;13.418;2023-02-15T03:02:59;102045.00;;;6.50
22828;BMP180;11580;52.562;13.418;2023-02-15T03:05:34;102048.00;;;6.50
22828;BMP180;11580;52.562;13.418;2023-02-15T03:08:04;102048.00;;;6.50
22828;BMP180;11580;52.562;13.418;2023-02-15T03:10:39;102049.00;;;6.40
22828;BMP180;11580;52.562;13.418;2023-02-15T03:13:08;102056.00;;;6.40
22828;BMP180;11580;52.562;13.418;2023-02-15T03:15:39;102050.00;;;6.40
22828;BMP180;11580;52.562;13.418;2023-02-15T03:18:34;102047.00;;;6.30
22828;BMP180;11580;52.562;13.418;2023-02-15T03:21:07;102007.00;;;6.30
22828;BMP180;11580;52.562;13.418;2023-02-15T03:23:38;102040.00;;;6.30
22828;BMP180;11580;52.562;13.418;2023-02-15T03:26:07;101992.00;;;6.20
22828;BMP180;11580;52.562;13.418;2023-02-15T03:28:43;102012.00;;;6.20
22828;BMP180;11580;52.562;13.418;2023-02-15T03:31:14;102032.00;;;6.20
22828;BMP180;11580;52.562;13.418;2023-02-15T03:33:53;102030.00;;;6.20
22828;BMP180;11580;52.562;13.418;2023-02-15T03:36:30;102027.00;;;6.10
22828;BMP180;11580;52.562;13.418;2023-02-15T03:39:17;102022.00;;;6.10
22828;BMP180;11580;52.562;13.418;2023-02-15T03:41:55;102022.00;;;6.10
22828;BMP180;11580;52.562;13.418;2023-02-15T03:44:29;102018.00;;;6.10
22828;BMP180;11580;52.562;13.418;2023-02-15T03:47:03;102020.00;;;6.00
22828;BMP180;11580;52.562;13.418;2023-02-15T03:49:42;102027.00;;;6.00
22828;BMP180;11580;52.562;13.418;2023-02-15T03:52:14;101975.00;;;6.00
22828;BMP180;11580;52.562;13.418;2023-02-15T03:54:42;102011.00;;;5.90
22828;BMP180;11580;52.562;13.418;2023-02-15T03:57:16;102011.00;;;5.90
22828;BMP180;11580;52.562;13.418;2023-02-15T04:00:05;101980.00;;;5.90
22828;BMP180;11580;52.562;13.418;2023-02-15T04:03:23;102000.00;;;5.80
22828;BMP180;11580;52.562;13.418;2023-02-15T04:05:53;101998.00;;;5.80
22828;BMP180;11580;52.562;13.418;2023-02-15T04:08:21;101999.00;;;5.80
22828;BMP180;11580;52.562;13.418;2023-02-15T04:11:08;101995.00;;;5.70
22828;BMP180;11580;52.562;13.418;2023-02-15T04:13:35;102004.00;;;5.70
22828;BMP180;11580;52.562;13.418;2023-02-15T04:16:02;101996.00;;;5.70
22828;BMP180;11580;52.562;13.418;2023-02-15T04:18:34;101994.00;;;5.70
22828;BMP180;11580;52.562;13.418;2023-02-15T04:21:21;101999.00;;;5.60
22828;BMP180;11580;52.562;13.418;2023-02-15T04:24:08;101975.00;;;5.60
22828;BMP180;11580;52.562;13.418;2023-02-15T04:26:53;101983.00;;;5.60
22828;BMP180;11580;52.562;13.418;2023-02-15T04:29:23;101982.00;;;5.60
22828;BMP180;11580;52.562;13.418;2023-02-15T04:31:51;101980.00;;;5.60
22828;BMP180;11580;52.562;13.418;2023-02-15T04:34:19;101962.00;;;5.60
22828;BMP180;11580;52.562;13.418;2023-02-15T04:36:46;101989.00;;;5.60
22828;BMP180;11580;52.562;13.418;2023-02-15T04:39:17;101971.00;;;5.60
22828;BMP180;11580;52.562;13.418;2023-02-15T04:41:45;101975.00;;;5.60
22828;BMP180;11580;52.562;13.418;2023-02-15T04:44:13;101979.00;;;5.60
22828;BMP180;11580;52.562;13.418;2023-02-15T04:46:40;101978.00;;;5.70
22828;BMP180;11580;52.562;13.418;2023-02-15T04:49:08;101963.00;;;5.60
22828;BMP180;11580;52.562;13.418;2023-02-15T04:51:36;101934.00;;;5.70
22828;BMP180;11580;52.562;13.418;2023-02-15T04:54:03;101960.00;;;5.70
22828;BMP180;11580;52.562;13.418;2023-02-15T04:56:32;101952.00;;;5.70
22828;BMP180;11580;52.562;13.418;2023-02-15T04:59:00;101954.00;;;5.70
22828;BMP180;11580;52.562;13.418;2023-02-15T05:01:27;101959.00;;;5.80
22828;BMP180;11580;52.562;13.418;2023-02-15T05:03:55;101947.00;;;5.80
22828;BMP180;11580;52.562;13.418;2023-02-15T05:06:22;101929.00;;;5.80
22828;BMP180;11580;52.562;13.418;2023-02-15T05:08:49;101936.00;;;5.80
22828;BMP180;11580;52.562;13.418;2023-02-15T05:11:16;101921.00;;;5.80
22828;BMP180;11580;52.562;13.418;2023-02-15T05:13:45;101923.00;;;5.80
22828;BMP180;11580;52.562;13.418;2023-02-15T05:16:12;101926.00;;;5.70
22828;BMP180;11580;52.562;13.418;2023-02-15T05:18:40;101930.00;;;5.70
22828;BMP180;11580;52.562;13.418;2023-02-15T05:21:07;101932.00;;;5.70
22828;BMP180;11580;52.562;13.418;2023-02-15T05:23:34;101931.00;;;5.70
22828;BMP180;11580;52.562;13.418;2023-02-15T05:26:02;101937.00;;;5.70
22828;BMP180;11580;52.562;13.418;2023-02-15T05:28:48;101934.00;;;5.70
22828;BMP180;11580;52.562;13.418;2023-02-15T05:31:18;101929.00;;;5.70
22828;BMP180;11580;52.562;13.418;2023-02-15T05:33:45;101931.00;;;5.70
22828;BMP180;11580;52.562;13.418;2023-02-15T05:36:13;101905.00;;;5.70
22828;BMP180;11580;52.562;13.418;2023-02-15T05:38:40;101934.00;;;5.70
22828;BMP180;11580;52.562;13.418;2023-02-15T05:41:09;101914.00;;;5.70
22828;BMP180;11580;52.562;13.418;2023-02-15T05:43:38;101922.00;;;5.70
22828;BMP180;11580;52.562;13.418;2023-02-15T05:46:07;101925.00;;;5.70
22828;BMP180;11580;52.562;13.418;2023-02-15T05:48:35;101912.00;;;5.70
22828;BMP180;11580;52.562;13.418;2023-02-15T05:51:05;101913.00;;;5.80
22828;BMP180;11580;52.562;13.418;2023-02-15T05:53:36;101912.00;;;5.80
22828;BMP180;11580;52.562;13.418;2023-02-15T05:56:07;101908.00;;;5.80
22828;BMP180;11580;52.562;13.418;2023-02-15T05:58:37;101903.00;;;5.90
22828;BMP180;11580;52.562;13.418;2023-02-15T06:01:10;101916.00;;;6.00
22828;BMP180;11580;52.562;13.418;2023-02-15T06:03:38;101908.00;;;6.00
22828;BMP180;11580;52.562;13.418;2023-02-15T06:06:05;101905.00;;;6.10
22828;BMP180;11580;52.562;13.418;2023-02-15T06:08:33;101915.00;;;6.20
22828;BMP180;11580;52.562;13.418;2023-02-15T06:11:00;101915.00;;;6.20
22828;BMP180;11580;52.562;13.418;2023-02-15T06:13:28;101913.00;;;6.30
22828;BMP180;11580;52.562;13.418;2023-02-15T06:15:55;101912.00;;;6.40
22828;BMP180;11580;52.562;13.418;2023-02-15T06:18:24;101914.00;;;6.40
22828;BMP180;11580;52.562;13.418;2023-02-15T06:20:51;101911.00;;;6.50
22828;BMP180;11580;52.562;13.418;2023-02-15T06:23:18;101914.00;;;6.50
22828;BMP180;11580;52.562;13.418;2023-02-15T06:25:46;101906.00;;;6.60
22828;BMP180;11580;52.562;13.418;2023-02-15T06:28:14;101919.00;;;6.70
22828;BMP180;11580;52.562;13.418;2023-02-15T06:30:41;101912.00;;;6.80
22828;BMP180;11580;52.562;13.418;2023-02-15T06:33:08;101909.00;;;6.80
22828;BMP180;11580;52.562;13.418;2023-02-15T06:35:36;101906.00;;;6.90
22828;BMP180;11580;52.562;13.418;2023-02-15T06:38:04;101914.00;;;6.90
22828;BMP180;11580;52.562;13.418;2023-02-15T06:40:31;101905.00;;;7.00
22828;BMP180;11580;52.562;13.418;2023-02-15T06:42:58;101904.00;;;7.00
22828;BMP180;11580;52.562;13.418;2023-02-15T06:45:25;101906.00;;;7.10
22828;BMP180;11580;52.562;13.418;2023-02-15T06:47:52;101906.00;;;7.20
22828;BMP180;11580;52.562;13.418;2023-02-15T06:50:19;101910.00;;;7.20
22828;BMP180;11580;52.562;13.418;2023-02-15T06:52:48;101902.00;;;7.30
22828;BMP180;11580;52.562;13.418;2023-02-15T06:55:15;101904.00;;;7.30
22828;BMP180;11580;52.562;13.418;2023-02-15T06:57:42;101911.00;;;7.30
22828;BMP180;11580;52.562;13.418;2023-02-15T07:00:11;101905.00;;;7.40
22828;BMP180;11580;52.562;13.418;2023-02-15T07:02:39;101912.00;;;7.40
22828;BMP180;11580;52.562;13.418;2023-02-15T07:05:06;101906.00;;;7.50
22828;BMP180;11580;52.562;13.418;2023-02-15T07:07:33;101911.00;;;7.60
22828;BMP180;11580;52.562;13.418;2023-02-15T07:10:03;101914.00;;;7.60
22828;BMP180;11580;52.562;13.418;2023-02-15T07:12:30;101910.00;;;7.70
22828;BMP180;11580;52.562;13.418;2023-02-15T07:15:11;101901.00;;;7.60
22828;BMP180;11580;52.562;13.418;2023-02-15T07:17:39;101895.00;;;7.80
22828;BMP180;11580;52.562;13.418;2023-02-15T07:20:10;101889.00;;;7.80
22828;BMP180;11580;52.562;13.418;2023-02-15T07:22:38;101901.00;;;7.90
22828;BMP180;11580;52.562;13.418;2023-02-15T07:25:09;101872.00;;;7.90
22828;BMP180;11580;52.562;13.418;2023-02-15T07:27:36;101869.00;;;8.00
22828;BMP180;11580;52.562;13.418;2023-02-15T07:30:07;101893.00;;;8.10
22828;BMP180;11580;52.562;13.418;2023-02-15T07:32:34;101886.00;;;8.10
22828;BMP180;11580;52.562;13.418;2023-02-15T07:35:02;101871.00;;;8.20
22828;BMP180;11580;52.562;13.418;2023-02-15T07:37:29;101887.00;;;8.20
22828;BMP180;11580;52.562;13.418;2023-02-15T07:39:56;101878.00;;;8.30
22828;BMP180;11580;52.562;13.418;2023-02-15T07:42:25;101876.00;;;8.40
22828;BMP180;11580;52.562;13.418;2023-02-15T07:44:52;101871.00;;;8.40
22828;BMP180;11580;52.562;13.418;2023-02-15T07:47:19;101873.00;;;8.50
22828;BMP180;11580;52.562;13.418;2023-02-15T07:49:46;101875.00;;;8.50
22828;BMP180;11580;52.562;13.418;2023-02-15T07:52:15;101870.00;;;8.60
22828;BMP180;11580;52.562;13.418;2023-02-15T07:54:42;101870.00;;;8.60
22828;BMP180;11580;52.562;13.418;2023-02-15T07:57:09;101865.00;;;8.60
22828;BMP180;11580;52.562;13.418;2023-02-15T07:59:37;101863.00;;;8.70
22828;BMP180;11580;52.562;13.418;2023-02-15T08:02:09;101859.00;;;8.70
22828;BMP180;11580;52.562;13.418;2023-02-15T08:04:37;101858.00;;;8.80
22828;BMP180;11580;52.562;13.418;2023-02-15T08:07:05;101854.00;;;8.80
22828;BMP180;11580;52.562;13.418;2023-02-15T08:09:32;101863.00;;;8.90
22828;BMP180;11580;52.562;13.418;2023-02-15T08:11:59;101856.00;;;8.90
22828;BMP180;11580;52.562;13.418;2023-02-15T08:14:28;101874.00;;;8.90
22828;BMP180;11580;52.562;13.418;2023-02-15T08:17:00;101862.00;;;8.90
22828;BMP180;11580;52.562;13.418;2023-02-15T08:19:30;101870.00;;;9.00
22828;BMP180;11580;52.562;13.418;2023-02-15T08:22:01;101870.00;;;9.00
22828;BMP180;11580;52.562;13.418;2023-02-15T08:24:32;101832.00;;;9.10
22828;BMP180;11580;52.562;13.418;2023-02-15T08:27:00;101863.00;;;9.10
22828;BMP180;11580;52.562;13.418;2023-02-15T08:29:30;101865.00;;;9.20
22828;BMP180;11580;52.562;13.418;2023-02-15T08:32:02;101870.00;;;9.30
22828;BMP180;11580;52.562;13.418;2023-02-15T08:34:32;101854.00;;;9.30
22828;BMP180;11580;52.562;13.418;2023-02-15T08:36:59;101858.00;;;9.40
22828;BMP180;11580;52.562;13.418;2023-02-15T08:39:27;101852.00;;;9.40
22828;BMP180;11580;52.562;13.418;2023-02-15T08:41:55;101851.00;;;9.50
22828;BMP180;11580;52.562;13.418;2023-02-15T08:44:22;101847.00;;;9.40
22828;BMP180;11580;52.562;13.418;2023-02-15T08:46:49;101841.00;;;9.40
22828;BMP180;11580;52.562;13.418;2023-02-15T08:49:20;101836.00;;;9.50
22828;BMP180;11580;52.562;13.418;2023-02-15T08:51:49;101804.00;;;9.40
22828;BMP180;11580;52.562;13.418;2023-02-15T08:54:20;101838.00;;;9.50
22828;BMP180;11580;52.562;13.418;2023-02-15T08:56:48;101831.00;;;9.60
22828;BMP180;11580;52.562;13.418;2023-02-15T08:59:18;101827.00;;;9.70
22828;BMP180;11580;52.562;13.418;2023-02-15T09:01:47;101830.00;;;9.80
22828;BMP180;11580;52.562;13.418;2023-02-15T09:04:15;101833.00;;;9.80
22828;BMP180;11580;52.562;13.418;2023-02-15T09:06:45;101832.00;;;9.90
22828;BMP180;11580;52.562;13.418;2023-02-15T09:09:13;101822.00;;;10.00
22828;BMP180;11580;52.562;13.418;2023-02-15T09:11:43;101823.00;;;10.10
22828;BMP180;11580;52.562;13.418;2023-02-15T09:14:13;101830.00;;;10.20
22828;BMP180;11580;52.562;13.418;2023-02-15T09:16:43;101836.00;;;10.30
22828;BMP180;11580;52.562;13.418;2023-02-15T09:19:12;101837.00;;;10.40
22828;BMP180;11580;52.562;13.418;2023-02-15T09:21:39;101834.00;;;10.50
22828;BMP180;11580;52.562;13.418;2023-02-15T09:24:10;101802.00;;;10.60
22828;BMP180;11580;52.562;13.418;2023-02-15T09:26:41;101832.00;;;10.80
22828;BMP180;11580;52.562;13.418;2023-02-15T09:29:10;101830.00;;;10.90
22828;BMP180;11580;52.562;13.418;2023-02-15T09:31:40;101837.00;;;11.00
22828;BMP180;11580;52.562;13.418;2023-02-15T09:34:10;101836.00;;;11.00
22828;BMP180;11580;52.562;13.418;2023-02-15T09:36:39;101816.00;;;11.10
22828;BMP180;11580;52.562;13.418;2023-02-15T09:39:11;101839.00;;;11.20
22828;BMP180;11580;52.562;13.418;2023-02-15T09:42:11;101830.00;;;11.30
22828;BMP180;11580;52.562;13.418;2023-02-15T09:45:09;101834.00;;;11.30
22828;BMP180;11580;52.562;13.418;2023-02-15T09:48:08;101837.00;;;11.30
22828;BMP180;11580;52.562;13.418;2023-02-15T09:50:51;101831.00;;;11.30
22828;BMP180;11580;52.562;13.418;2023-02-15T09:53:38;101834.00;;;11.30
22828;BMP180;11580;52.562;13.418;2023-02-15T09:56:20;101828.00;;;11.30
22828;BMP180;11580;52.562;13.418;2023-02-15T09:59:01;101825.00;;;11.40
22828;BMP180;11580;52.562;13.418;2023-02-15T10:01:41;101825.00;;;11.40
22828;BMP180;11580;52.562;13.418;2023-02-15T10:04:34;101831.00;;;11.40
22828;BMP180;11580;52.562;13.418;2023-02-15T10:07:22;101829.00;;;11.40
22828;BMP180;11580;52.562;13.418;2023-02-15T10:10:10;101821.00;;;11.30
22828;BMP180;11580;52.562;13.418;2023-02-15T10:13:05;101830.00;;;11.30
22828;BMP180;11580;52.562;13.418;2023-02-15T10:15:52;101822.00;;;11.20
22828;BMP180;11580;52.562;13.418;2023-02-15T10:18:51;101820.00;;;11.20
22828;BMP180;11580;52.562;13.418;2023-02-15T10:21:34;101823.00;;;11.10
22828;BMP180;11580;52.562;13.418;2023-02-15T10:27:20;101799.00;;;11.10
22828;BMP180;11580;52.562;13.418;2023-02-15T10:30:03;101798.00;;;11.10
22828;BMP180;11580;52.562;13.418;2023-02-15T10:32:43;101801.00;;;11.00
22828;BMP180;11580;52.562;13.418;2023-02-15T10:35:25;101788.00;;;11.00
22828;BMP180;11580;52.562;13.418;2023-02-15T10:38:09;101788.00;;;11.10
22828;BMP180;11580;52.562;13.418;2023-02-15T10:40:54;101793.00;;;11.00
22828;BMP180;11580;52.562;13.418;2023-02-15T10:43:48;101793.00;;;11.10
22828;BMP180;11580;52.562;13.418;2023-02-15T10:46:40;101786.00;;;11.10
22828;BMP180;11580;52.562;13.418;2023-02-15T10:49:30;101753.00;;;11.10
22828;BMP180;11580;52.562;13.418;2023-02-15T10:52:21;101786.00;;;11.10
22828;BMP180;11580;52.562;13.418;2023-02-15T10:55:06;101781.00;;;11.10
22828;BMP180;11580;52.562;13.418;2023-02-15T10:57:48;101778.00;;;11.10
22828;BMP180;11580;52.562;13.418;2023-02-15T11:00:29;101776.00;;;11.20
22828;BMP180;11580;52.562;13.418;2023-02-15T11:03:35;101764.00;;;11.20
22828;BMP180;11580;52.562;13.418;2023-02-15T11:06:06;101771.00;;;11.20
22828;BMP180;11580;52.562;13.418;2023-02-15T11:08:40;101751.00;;;11.30
22828;BMP180;11580;52.562;13.418;2023-02-15T11:11:12;101760.00;;;11.30
22828;BMP180;11580;52.562;13.418;2023-02-15T11:13:47;101761.00;;;11.30
22828;BMP180;11580;52.562;13.418;2023-02-15T11:16:20;101756.00;;;11.30
22828;BMP180;11580;52.562;13.418;2023-02-15T11:18:55;101755.00;;;11.40
22828;BMP180;11580;52.562;13.418;2023-02-15T11:21:30;101751.00;;;11.40
22828;BMP180;11580;52.562;13.418;2023-02-15T11:24:11;101759.00;;;11.50
22828;BMP180;11580;52.562;13.418;2023-02-15T11:26:42;101756.00;;;11.50
22828;BMP180;11580;52.562;13.418;2023-02-15T11:29:18;101743.00;;;11.50
22828;BMP180;11580;52.562;13.418;2023-02-15T11:31:54;101750.00;;;11.60
22828;BMP180;11580;52.562;13.418;2023-02-15T11:34:31;101736.00;;;11.60
22828;BMP180;11580;52.562;13.418;2023-02-15T11:37:06;101735.00;;;11.60
22828;BMP180;11580;52.562;13.418;2023-02-15T11:39:35;101736.00;;;11.70
22828;BMP180;11580;52.562;13.418;2023-02-15T11:42:12;101736.00;;;11.70
22828;BMP180;11580;52.562;13.418;2023-02-15T11:44:55;101732.00;;;11.80
22828;BMP180;11580;52.562;13.418;2023-02-15T11:47:23;101735.00;;;11.80
22828;BMP180;11580;52.562;13.418;2023-02-15T11:49:52;101730.00;;;11.90
22828;BMP180;11580;52.562;13.418;2023-02-15T11:52:19;101709.00;;;11.90
22828;BMP180;11580;52.562;13.418;2023-02-15T11:54:49;101725.00;;;12.00
22828;BMP180;11580;52.562;13.418;2023-02-15T11:57:23;101730.00;;;12.00
22828;BMP180;11580;52.562;13.418;2023-02-15T11:59:58;101732.00;;;12.00
22828;BMP180;11580;52.562;13.418;2023-02-15T12:02:35;101728.00;;;12.10
22828;BMP180;11580;52.562;13.418;2023-02-15T12:05:12;101726.00;;;12.20
22828;BMP180;11580;52.562;13.418;2023-02-15T12:07:46;101730.00;;;12.20
22828;BMP180;11580;52.562;13.418;2023-02-15T12:10:20;101729.00;;;12.30
22828;BMP180;11580;52.562;13.418;2023-02-15T12:13:10;101728.00;;;12.30
22828;BMP180;11580;52.562;13.418;2023-02-15T12:15:40;101730.00;;;12.40
22828;BMP180;11580;52.562;13.418;2023-02-15T12:18:21;101718.00;;;12.40
22828;BMP180;11580;52.562;13.418;2023-02-15T12:20:59;101719.00;;;12.50
22828;BMP180;11580;52.562;13.418;2023-02-15T12:23:29;101719.00;;;12.50
22828;BMP180;11580;52.562;13.418;2023-02-15T12:25:57;101709.00;;;12.60
22828;BMP180;11580;52.562;13.418;2023-02-15T12:28:31;101685.00;;;12.60
22828;BMP180;11580;52.562;13.418;2023-02-15T12:31:02;101705.00;;;12.70
22828;BMP180;11580;52.562;13.418;2023-02-15T12:33:33;101704.00;;;12.70
22828;BMP180;11580;52.562;13.418;2023-02-15T12:36:11;101709.00;;;12.80
22828;BMP180;11580;52.562;13.418;2023-02-15T12:38:39;101701.00;;;12.80
22828;BMP180;11580;52.562;13.418;2023-02-15T12:41:23;101698.00;;;12.90
22828;BMP180;11580;52.562;13.418;2023-02-15T12:44:05;101671.00;;;12.90
22828;BMP180;11580;52.562;13.418;2023-02-15T12:46:33;101690.00;;;13.00
22828;BMP180;11580;52.562;13.418;2023-02-15T12:49:11;101695.00;;;13.10
22828;BMP180;11580;52.562;13.418;2023-02-15T12:51:51;101694.00;;;13.20
22828;BMP180;11580;52.562;13.418;2023-02-15T12:54:36;101670.00;;;13.20
22828;BMP180;11580;52.562;13.418;2023-02-15T12:57:25;101680.00;;;13.30
22828;BMP180;11580;52.562;13.418;2023-02-15T12:59:55;101680.00;;;13.40
22828;BMP180;11580;52.562;13.418;2023-02-15T13:02:27;101673.00;;;13.50
22828;BMP180;11580;52.562;13.418;2023-02-15T13:04:57;101668.00;;;13.60
22828;BMP180;11580;52.562;13.418;2023-02-15T13:07:32;101669.00;;;13.70
22828;BMP180;11580;52.562;13.418;2023-02-15T13:10:00;101666.00;;;13.80
22828;BMP180;11580;52.562;13.418;2023-02-15T13:12:30;101661.00;;;13.90
22828;BMP180;11580;52.562;13.418;2023-02-15T13:14:59;101660.00;;;14.00
22828;BMP180;11580;52.562;13.418;2023-02-15T13:17:31;101662.00;;;14.10
22828;BMP180;11580;52.562;13.418;2023-02-15T13:20:04;101649.00;;;14.20
22828;BMP180;11580;52.562;13.418;2023-02-15T13:22:40;101643.00;;;14.20
22828;BMP180;11580;52.562;13.418;2023-02-15T13:25:18;101645.00;;;14.30
22828;BMP180;11580;52.562;13.418;2023-02-15T13:27:51;101622.00;;;14.40
22828;BMP180;11580;52.562;13.418;2023-02-15T13:30:27;101643.00;;;14.50
22828;BMP180;11580;52.562;13.418;2023-02-15T13:33:03;101640.00;;;14.50
22828;BMP180;11580;52.562;13.418;2023-02-15T13:35:42;101634.00;;;14.60
22828;BMP180;11580;52.562;13.418;2023-02-15T13:38:45;101630.00;;;14.60
22828;BMP180;11580;52.562;13.418;2023-02-15T13:41:17;101637.00;;;14.70
22828;BMP180;11580;52.562;13.418;2023-02-15T13:43:59;101633.00;;;14.70
22828;BMP180;11580;52.562;13.418;2023-02-15T13:46:45;101627.00;;;14.80
22828;BMP180;11580;52.562;13.418;2023-02-15T13:49:35;101618.00;;;14.90
22828;BMP180;11580;52.562;13.418;2023-02-15T13:52:18;101618.00;;;14.90
22828;BMP180;11580;52.562;13.418;2023-02-15T13:55:09;101628.00;;;14.90
22828;BMP180;11580;52.562;13.418;2023-02-15T13:58:09;101628.00;;;14.90
22828;BMP180;11580;52.562;13.418;2023-02-15T14:00:48;101630.00;;;14.90
22828;BMP180;11580;52.562;13.418;2023-02-15T14:04:15;101598.00;;;14.90
22828;BMP180;11580;52.562;13.418;2023-02-15T14:07:12;101630.00;;;14.90
22828;BMP180;11580;52.562;13.418;2023-02-15T14:09:59;101636.00;;;14.90
22828;BMP180;11580;52.562;13.418;2023-02-15T14:12:48;101632.00;;;14.80
22828;BMP180;11580;52.562;13.418;2023-02-15T14:15:33;101627.00;;;14.80
22828;BMP180;11580;52.562;13.418;2023-02-15T14:18:15;101629.00;;;14.80
22828;BMP180;11580;52.562;13.418;2023-02-15T14:20:59;101625.00;;;14.80
22828;BMP180;11580;52.562;13.418;2023-02-15T14:23:43;101621.00;;;14.80
22828;BMP180;11580;52.562;13.418;2023-02-15T14:26:21;101620.00;;;14.70
22828;BMP180;11580;52.562;13.418;2023-02-15T14:29:10;101625.00;;;14.70
22828;BMP180;11580;52.562;13.418;2023-02-15T14:31:46;101618.00;;;14.70
22828;BMP180;11580;52.562;13.418;2023-02-15T14:34:22;101612.00;;;14.70
22828;BMP180;11580;52.562;13.418;2023-02-15T14:36:51;101616.00;;;14.70